sensor_id;sensor_type;location;lat;lon;timestamp;temperature;humidity
17200;DHT22;8716;52.268;20.968;2023-12-20T00:01:12;7.40;99.90
17200;DHT22;8716;52.268;20.968;2023-12-20T00:03:41;7.40;99.90
17200;DHT22;8716;52.268;20.968;2023-12-20T00:06:10;7.30;99.90
17200;DHT22;8716;52.268;20.968;2023-12-20T00:08:38;7.40;99.90
17200;DHT22;8716;52.268;20.968;2023-12-20T00:11:08;7.30;99.90
17200;DHT22;8716;52.268;20.968;2023-12-20T00:13:37;7.40;99.90
17200;DHT22;8716;52.268;20.968;2023-12-20T00:16:06;7.40;99.90
17200;DHT22;8716;52.268;20.968;2023-12-20T00:18:34;7.40;99.90
17200;DHT22;8716;52.268;20.968;2023-12-20T00:21:03;7.30;99.90
17200;DHT22;8716;52.268;20.968;2023-12-20T00:23:31;7.30;99.90
17200;DHT22;8716;52.268;20.968;2023-12-20T00:25:59;7.40;99.90
17200;DHT22;8716;52.268;20.968;2023-12-20T00:28:29;7.40;99.90
17200;DHT22;8716;52.268;20.968;2023-12-20T00:30:57;7.40;99.90
17200;DHT22;8716;52.268;20.968;2023-12-20T00:33:26;7.40;99.90
17200;DHT22;8716;52.268;20.968;2023-12-20T00:35:54;7.40;99.90
17200;DHT22;8716;52.268;20.968;2023-12-20T00:38:22;7.30;99.90
17200;DHT22;8716;52.268;20.968;2023-12-20T00:40:51;7.40;99.90
17200;DHT22;8716;52.268;20.968;2023-12-20T00:43:19;7.40;99.90
17200;DHT22;8716;52.268;20.968;2023-12-20T00:45:49;7.40;99.90
17200;DHT22;8716;52.268;20.968;2023-12-20T00:48:21;7.40;99.90
17200;DHT22;8716;52.268;20.968;2023-12-20T00:50:50;7.40;99.90
17200;DHT22;8716;52.268;20.968;2023-12-20T00:53:20;7.40;99.90
17200;DHT22;8716;52.268;20.968;2023-12-20T00:55:48;7.40;99.90
17200;DHT22;8716;52.268;20.968;2023-12-20T00:58:17;7.40;99.90
17200;DHT22;8716;52.268;20.968;2023-12-20T01:00:45;7.40;99.90
17200;DHT22;8716;52.268;20.968;2023-12-20T01:03:15;7.40;99.90
17200;DHT22;8716;52.268;20.968;2023-12-20T01:05:43;7.40;99.90
17200;DHT22;8716;52.268;20.968;2023-12-20T01:08:12;7.50;99.90
17200;DHT22;8716;52.268;20.968;2023-12-20T01:10:41;7.40;99.90
17200;DHT22;8716;52.268;20.968;2023-12-20T01:13:09;7.40;99.90
17200;DHT22;8716;52.268;20.968;2023-12-20T01:15:38;7.50;99.90
17200;DHT22;8716;52.268;20.968;2023-12-20T01:18:06;7.40;99.90
17200;DHT22;8716;52.268;20.968;2023-12-20T01:20:36;7.40;99.90
17200;DHT22;8716;52.268;20.968;2023-12-20T01:23:04;7.40;99.90
17200;DHT22;8716;52.268;20.968;2023-12-20T01:25:32;7.40;99.90
17200;DHT22;8716;52.268;20.968;2023-12-20T01:28:01;7.50;99.90
17200;DHT22;8716;52.268;20.968;2023-12-20T01:30:30;7.50;99.90
17200;DHT22;8716;52.268;20.968;2023-12-20T01:33:00;7.50;99.90
17200;DHT22;8716;52.268;20.968;2023-12-20T01:35:28;7.50;99.90
17200;DHT22;8716;52.268;20.968;2023-12-20T01:37:58;7.50;99.90
17200;DHT22;8716;52.268;20.968;2023-12-20T01:40:26;7.60;99.90
17200;DHT22;8716;52.268;20.968;2023-12-20T01:42:58;7.40;99.90
17200;DHT22;8716;52.268;20.968;2023-12-20T01:45:27;7.50;99.90
17200;DHT22;8716;52.268;20.968;2023-12-20T01:47:57;7.50;99.90
17200;DHT22;8716;52.268;20.968;2023-12-20T01:50:25;7.50;99.90
17200;DHT22;8716;52.268;20.968;2023-12-20T01:52:57;7.60;99.90
17200;DHT22;8716;52.268;20.968;2023-12-20T01:55:27;7.50;99.90
17200;DHT22;8716;52.268;20.968;2023-12-20T01:57:57;7.50;99.90
17200;DHT22;8716;52.268;20.968;2023-12-20T02:00:28;7.60;99.90
17200;DHT22;8716;52.268;20.968;2023-12-20T02:03:01;7.60;99.90
17200;DHT22;8716;52.268;20.968;2023-12-20T02:05:30;7.70;99.90
17200;DHT22;8716;52.268;20.968;2023-12-20T02:07:59;7.60;99.90
17200;DHT22;8716;52.268;20.968;2023-12-20T02:10:28;7.60;99.90
17200;DHT22;8716;52.268;20.968;2023-12-20T02:12:57;7.50;99.90
17200;DHT22;8716;52.268;20.968;2023-12-20T02:15:25;7.60;99.90
17200;DHT22;8716;52.268;20.968;2023-12-20T02:17:56;7.60;99.90
17200;DHT22;8716;52.268;20.968;2023-12-20T02:20:24;7.50;99.90
17200;DHT22;8716;52.268;20.968;2023-12-20T02:22:54;7.60;99.90
17200;DHT22;8716;52.268;20.968;2023-12-20T02:25:22;7.60;99.90
17200;DHT22;8716;52.268;20.968;2023-12-20T02:27:51;7.60;99.90
17200;DHT22;8716;52.268;20.968;2023-12-20T02:30:22;7.60;99.90
17200;DHT22;8716;52.268;20.968;2023-12-20T02:32:51;7.60;99.90
17200;DHT22;8716;52.268;20.968;2023-12-20T02:35:20;7.60;99.90
17200;DHT22;8716;52.268;20.968;2023-12-20T02:37:49;7.60;99.90
17200;DHT22;8716;52.268;20.968;2023-12-20T02:40:18;7.60;99.90
17200;DHT22;8716;52.268;20.968;2023-12-20T02:42:46;7.60;99.90
17200;DHT22;8716;52.268;20.968;2023-12-20T02:45:15;7.60;99.90
17200;DHT22;8716;52.268;20.968;2023-12-20T02:47:44;7.60;99.90
17200;DHT22;8716;52.268;20.968;2023-12-20T02:50:13;7.70;99.90
17200;DHT22;8716;52.268;20.968;2023-12-20T02:52:44;7.60;99.90
17200;DHT22;8716;52.268;20.968;2023-12-20T02:55:13;7.50;99.90
17200;DHT22;8716;52.268;20.968;2023-12-20T02:57:43;7.60;99.90
17200;DHT22;8716;52.268;20.968;2023-12-20T03:00:12;7.50;99.90
17200;DHT22;8716;52.268;20.968;2023-12-20T03:02:41;7.50;99.90
17200;DHT22;8716;52.268;20.968;2023-12-20T03:05:09;7.50;99.90
17200;DHT22;8716;52.268;20.968;2023-12-20T03:07:37;7.50;99.90
17200;DHT22;8716;52.268;20.968;2023-12-20T03:10:06;7.60;99.90
17200;DHT22;8716;52.268;20.968;2023-12-20T03:12:47;7.60;99.90
17200;DHT22;8716;52.268;20.968;2023-12-20T03:15:16;7.50;99.90
17200;DHT22;8716;52.268;20.968;2023-12-20T03:17:44;7.60;99.90
17200;DHT22;8716;52.268;20.968;2023-12-20T03:20:13;7.60;99.90
17200;DHT22;8716;52.268;20.968;2023-12-20T03:22:41;7.60;99.90
17200;DHT22;8716;52.268;20.968;2023-12-20T03:25:10;7.50;99.90
17200;DHT22;8716;52.268;20.968;2023-12-20T03:27:38;7.60;99.90
17200;DHT22;8716;52.268;20.968;2023-12-20T03:30:09;7.60;99.90
17200;DHT22;8716;52.268;20.968;2023-12-20T03:32:38;7.60;99.90
17200;DHT22;8716;52.268;20.968;2023-12-20T03:35:09;7.60;99.90
17200;DHT22;8716;52.268;20.968;2023-12-20T03:37:37;7.60;99.90
17200;DHT22;8716;52.268;20.968;2023-12-20T03:40:06;7.60;99.90
17200;DHT22;8716;52.268;20.968;2023-12-20T03:42:37;7.50;99.90
17200;DHT22;8716;52.268;20.968;2023-12-20T03:45:08;7.60;99.90
17200;DHT22;8716;52.268;20.968;2023-12-20T03:47:37;7.60;99.90
17200;DHT22;8716;52.268;20.968;2023-12-20T03:50:06;7.60;99.90
17200;DHT22;8716;52.268;20.968;2023-12-20T03:52:36;7.60;99.90
17200;DHT22;8716;52.268;20.968;2023-12-20T03:55:05;7.50;99.90
17200;DHT22;8716;52.268;20.968;2023-12-20T03:57:34;7.50;99.90
17200;DHT22;8716;52.268;20.968;2023-12-20T04:00:04;7.50;99.90
17200;DHT22;8716;52.268;20.968;2023-12-20T04:02:39;7.50;99.90
17200;DHT22;8716;52.268;20.968;2023-12-20T04:05:09;7.60;99.90
17200;DHT22;8716;52.268;20.968;2023-12-20T04:07:41;7.60;99.90
17200;DHT22;8716;52.268;20.968;2023-12-20T04:10:09;7.60;99.90
17200;DHT22;8716;52.268;20.968;2023-12-20T04:12:38;7.60;99.90
17200;DHT22;8716;52.268;20.968;2023-12-20T04:15:07;7.60;99.90
17200;DHT22;8716;52.268;20.968;2023-12-20T04:17:36;7.60;99.90
17200;DHT22;8716;52.268;20.968;2023-12-20T04:20:07;7.50;99.90
17200;DHT22;8716;52.268;20.968;2023-12-20T04:22:36;7.60;99.90
17200;DHT22;8716;52.268;20.968;2023-12-20T04:25:05;7.60;99.90
17200;DHT22;8716;52.268;20.968;2023-12-20T04:27:35;7.50;99.90
17200;DHT22;8716;52.268;20.968;2023-12-20T04:30:07;7.50;99.90
17200;DHT22;8716;52.268;20.968;2023-12-20T04:32:36;7.50;99.90
17200;DHT22;8716;52.268;20.968;2023-12-20T04:35:06;7.50;99.90
17200;DHT22;8716;52.268;20.968;2023-12-20T04:37:35;7.50;99.90
17200;DHT22;8716;52.268;20.968;2023-12-20T04:40:04;7.50;99.90
17200;DHT22;8716;52.268;20.968;2023-12-20T04:42:33;7.50;99.90
17200;DHT22;8716;52.268;20.968;2023-12-20T04:45:01;7.50;99.90
17200;DHT22;8716;52.268;20.968;2023-12-20T04:47:30;7.50;99.90
17200;DHT22;8716;52.268;20.968;2023-12-20T04:49:58;7.50;99.90
17200;DHT22;8716;52.268;20.968;2023-12-20T04:52:28;7.50;99.90
17200;DHT22;8716;52.268;20.968;2023-12-20T04:54:57;7.50;99.90
17200;DHT22;8716;52.268;20.968;2023-12-20T04:57:26;7.50;99.90
17200;DHT22;8716;52.268;20.968;2023-12-20T04:59:54;7.50;99.90
17200;DHT22;8716;52.268;20.968;2023-12-20T05:02:23;7.50;99.90
17200;DHT22;8716;52.268;20.968;2023-12-20T05:04:51;7.50;99.90
17200;DHT22;8716;52.268;20.968;2023-12-20T05:07:22;7.40;99.90
17200;DHT22;8716;52.268;20.968;2023-12-20T05:09:52;7.50;99.90
17200;DHT22;8716;52.268;20.968;2023-12-20T05:12:21;7.50;99.90
17200;DHT22;8716;52.268;20.968;2023-12-20T05:17:19;7.40;99.90
17200;DHT22;8716;52.268;20.968;2023-12-20T05:19:48;7.40;99.90
17200;DHT22;8716;52.268;20.968;2023-12-20T05:22:16;7.50;99.90
17200;DHT22;8716;52.268;20.968;2023-12-20T05:24:45;7.50;99.90
17200;DHT22;8716;52.268;20.968;2023-12-20T05:27:15;7.50;99.90
17200;DHT22;8716;52.268;20.968;2023-12-20T05:29:43;7.40;99.90
17200;DHT22;8716;52.268;20.968;2023-12-20T05:32:11;7.50;99.90
17200;DHT22;8716;52.268;20.968;2023-12-20T05:34:39;7.40;99.90
17200;DHT22;8716;52.268;20.968;2023-12-20T05:37:08;7.40;99.90
17200;DHT22;8716;52.268;20.968;2023-12-20T05:39:36;7.50;99.90
17200;DHT22;8716;52.268;20.968;2023-12-20T05:42:05;7.50;99.90
17200;DHT22;8716;52.268;20.968;2023-12-20T05:44:35;7.40;99.90
17200;DHT22;8716;52.268;20.968;2023-12-20T05:47:03;7.40;99.90
17200;DHT22;8716;52.268;20.968;2023-12-20T05:49:32;7.40;99.90
17200;DHT22;8716;52.268;20.968;2023-12-20T05:52:00;7.40;99.90
17200;DHT22;8716;52.268;20.968;2023-12-20T05:54:28;7.40;99.90
17200;DHT22;8716;52.268;20.968;2023-12-20T05:56:57;7.40;99.90
17200;DHT22;8716;52.268;20.968;2023-12-20T05:59:25;7.40;99.90
17200;DHT22;8716;52.268;20.968;2023-12-20T06:01:54;7.40;99.90
17200;DHT22;8716;52.268;20.968;2023-12-20T06:04:23;7.50;99.90
17200;DHT22;8716;52.268;20.968;2023-12-20T06:06:53;7.50;99.90
17200;DHT22;8716;52.268;20.968;2023-12-20T06:09:23;7.50;99.90
17200;DHT22;8716;52.268;20.968;2023-12-20T06:11:51;7.40;99.90
17200;DHT22;8716;52.268;20.968;2023-12-20T06:14:20;7.40;99.90
17200;DHT22;8716;52.268;20.968;2023-12-20T06:16:49;7.40;99.90
17200;DHT22;8716;52.268;20.968;2023-12-20T06:19:24;7.40;99.90
17200;DHT22;8716;52.268;20.968;2023-12-20T06:21:53;7.40;99.90
17200;DHT22;8716;52.268;20.968;2023-12-20T06:24:23;7.50;99.90
17200;DHT22;8716;52.268;20.968;2023-12-20T06:26:55;7.50;99.90
17200;DHT22;8716;52.268;20.968;2023-12-20T06:29:24;7.40;99.90
17200;DHT22;8716;52.268;20.968;2023-12-20T06:31:52;7.50;99.90
17200;DHT22;8716;52.268;20.968;2023-12-20T06:34:22;7.40;99.90
17200;DHT22;8716;52.268;20.968;2023-12-20T06:36:53;7.40;99.90
17200;DHT22;8716;52.268;20.968;2023-12-20T06:39:22;7.40;99.90
17200;DHT22;8716;52.268;20.968;2023-12-20T06:41:53;7.40;99.90
17200;DHT22;8716;52.268;20.968;2023-12-20T06:44:22;7.40;99.90
17200;DHT22;8716;52.268;20.968;2023-12-20T06:46:50;7.40;99.90
17200;DHT22;8716;52.268;20.968;2023-12-20T06:49:19;7.40;99.90
17200;DHT22;8716;52.268;20.968;2023-12-20T06:51:49;7.40;99.90
17200;DHT22;8716;52.268;20.968;2023-12-20T06:54:20;7.40;99.90
17200;DHT22;8716;52.268;20.968;2023-12-20T06:56:48;7.40;99.90
17200;DHT22;8716;52.268;20.968;2023-12-20T06:59:16;7.50;99.90
17200;DHT22;8716;52.268;20.968;2023-12-20T07:01:48;7.40;99.90
17200;DHT22;8716;52.268;20.968;2023-12-20T07:04:17;7.40;99.90
17200;DHT22;8716;52.268;20.968;2023-12-20T07:06:49;7.40;99.90
17200;DHT22;8716;52.268;20.968;2023-12-20T07:09:19;7.40;99.90
17200;DHT22;8716;52.268;20.968;2023-12-20T07:11:47;7.40;99.90
17200;DHT22;8716;52.268;20.968;2023-12-20T07:14:16;7.40;99.90
17200;DHT22;8716;52.268;20.968;2023-12-20T07:16:45;7.40;99.90
17200;DHT22;8716;52.268;20.968;2023-12-20T07:19:13;7.40;99.90
17200;DHT22;8716;52.268;20.968;2023-12-20T07:21:42;7.50;99.90
17200;DHT22;8716;52.268;20.968;2023-12-20T07:24:11;7.40;99.90
17200;DHT22;8716;52.268;20.968;2023-12-20T07:26:40;7.50;99.90
17200;DHT22;8716;52.268;20.968;2023-12-20T07:29:08;7.50;99.90
17200;DHT22;8716;52.268;20.968;2023-12-20T07:31:37;7.50;99.90
17200;DHT22;8716;52.268;20.968;2023-12-20T07:34:05;7.50;99.90
17200;DHT22;8716;52.268;20.968;2023-12-20T07:36:34;7.50;99.90
17200;DHT22;8716;52.268;20.968;2023-12-20T07:39:03;7.60;99.90
17200;DHT22;8716;52.268;20.968;2023-12-20T07:41:33;7.50;99.90
17200;DHT22;8716;52.268;20.968;2023-12-20T07:44:01;7.50;99.90
17200;DHT22;8716;52.268;20.968;2023-12-20T07:46:29;7.50;99.90
17200;DHT22;8716;52.268;20.968;2023-12-20T07:49:00;7.50;99.90
17200;DHT22;8716;52.268;20.968;2023-12-20T07:51:29;7.50;99.90
17200;DHT22;8716;52.268;20.968;2023-12-20T07:53:59;7.50;99.90
17200;DHT22;8716;52.268;20.968;2023-12-20T07:56:28;7.50;99.90
17200;DHT22;8716;52.268;20.968;2023-12-20T07:58:57;7.50;99.90
17200;DHT22;8716;52.268;20.968;2023-12-20T08:01:27;7.50;99.90
17200;DHT22;8716;52.268;20.968;2023-12-20T08:03:55;7.60;99.90
17200;DHT22;8716;52.268;20.968;2023-12-20T08:06:24;7.50;99.90
17200;DHT22;8716;52.268;20.968;2023-12-20T08:08:52;7.60;99.90
17200;DHT22;8716;52.268;20.968;2023-12-20T08:11:30;7.60;99.90
17200;DHT22;8716;52.268;20.968;2023-12-20T08:14:00;7.50;99.90
17200;DHT22;8716;52.268;20.968;2023-12-20T08:16:29;7.50;99.90
17200;DHT22;8716;52.268;20.968;2023-12-20T08:18:57;7.60;99.90
17200;DHT22;8716;52.268;20.968;2023-12-20T08:21:26;7.50;99.90
17200;DHT22;8716;52.268;20.968;2023-12-20T08:23:54;7.50;99.90
17200;DHT22;8716;52.268;20.968;2023-12-20T08:26:22;7.50;99.90
17200;DHT22;8716;52.268;20.968;2023-12-20T08:28:53;7.60;99.90
17200;DHT22;8716;52.268;20.968;2023-12-20T08:31:27;7.60;99.90
17200;DHT22;8716;52.268;20.968;2023-12-20T08:33:56;7.60;99.90
17200;DHT22;8716;52.268;20.968;2023-12-20T08:36:25;7.60;99.90
17200;DHT22;8716;52.268;20.968;2023-12-20T08:38:54;7.60;99.90
17200;DHT22;8716;52.268;20.968;2023-12-20T08:41:23;7.60;99.90
17200;DHT22;8716;52.268;20.968;2023-12-20T08:43:54;7.60;99.90
17200;DHT22;8716;52.268;20.968;2023-12-20T08:46:23;7.60;99.90
17200;DHT22;8716;52.268;20.968;2023-12-20T08:48:54;7.60;99.90
17200;DHT22;8716;52.268;20.968;2023-12-20T08:51:22;7.60;99.90
17200;DHT22;8716;52.268;20.968;2023-12-20T08:53:52;7.60;99.90
17200;DHT22;8716;52.268;20.968;2023-12-20T08:56:24;7.60;99.90
17200;DHT22;8716;52.268;20.968;2023-12-20T08:58:54;7.50;99.90
17200;DHT22;8716;52.268;20.968;2023-12-20T09:01:25;7.70;99.90
17200;DHT22;8716;52.268;20.968;2023-12-20T09:03:58;7.60;99.90
17200;DHT22;8716;52.268;20.968;2023-12-20T09:06:28;7.60;99.90
17200;DHT22;8716;52.268;20.968;2023-12-20T09:08:57;7.60;99.90
17200;DHT22;8716;52.268;20.968;2023-12-20T09:11:26;7.60;99.90
17200;DHT22;8716;52.268;20.968;2023-12-20T09:13:54;7.60;99.90
17200;DHT22;8716;52.268;20.968;2023-12-20T09:16:23;7.60;99.90
17200;DHT22;8716;52.268;20.968;2023-12-20T09:18:57;7.50;99.90
17200;DHT22;8716;52.268;20.968;2023-12-20T09:21:26;7.60;99.90
17200;DHT22;8716;52.268;20.968;2023-12-20T09:23:55;7.50;99.90
17200;DHT22;8716;52.268;20.968;2023-12-20T09:26:23;7.50;99.90
17200;DHT22;8716;52.268;20.968;2023-12-20T09:28:52;7.50;99.90
17200;DHT22;8716;52.268;20.968;2023-12-20T09:31:20;7.50;99.90
17200;DHT22;8716;52.268;20.968;2023-12-20T09:33:49;7.50;99.90
17200;DHT22;8716;52.268;20.968;2023-12-20T09:36:19;7.50;99.90
17200;DHT22;8716;52.268;20.968;2023-12-20T09:38:48;7.40;99.90
17200;DHT22;8716;52.268;20.968;2023-12-20T09:41:20;7.60;99.90
17200;DHT22;8716;52.268;20.968;2023-12-20T09:43:49;7.60;99.90
17200;DHT22;8716;52.268;20.968;2023-12-20T09:46:23;7.60;99.90
17200;DHT22;8716;52.268;20.968;2023-12-20T09:48:55;7.60;99.90
17200;DHT22;8716;52.268;20.968;2023-12-20T09:51:29;7.60;99.90
17200;DHT22;8716;52.268;20.968;2023-12-20T09:53:59;7.60;99.90
17200;DHT22;8716;52.268;20.968;2023-12-20T09:56:29;7.60;99.90
17200;DHT22;8716;52.268;20.968;2023-12-20T09:58:58;7.60;99.90
17200;DHT22;8716;52.268;20.968;2023-12-20T10:01:28;7.60;99.90
17200;DHT22;8716;52.268;20.968;2023-12-20T10:03:57;7.60;99.90
17200;DHT22;8716;52.268;20.968;2023-12-20T10:06:35;7.70;99.90
17200;DHT22;8716;52.268;20.968;2023-12-20T10:09:04;7.70;99.90
17200;DHT22;8716;52.268;20.968;2023-12-20T10:11:32;7.70;99.90
17200;DHT22;8716;52.268;20.968;2023-12-20T10:14:04;7.70;99.90
17200;DHT22;8716;52.268;20.968;2023-12-20T10:16:33;7.70;99.90
17200;DHT22;8716;52.268;20.968;2023-12-20T10:19:02;7.70;99.90
17200;DHT22;8716;52.268;20.968;2023-12-20T10:21:31;7.70;99.90
17200;DHT22;8716;52.268;20.968;2023-12-20T10:24:01;7.70;99.90
17200;DHT22;8716;52.268;20.968;2023-12-20T10:26:29;7.70;99.90
17200;DHT22;8716;52.268;20.968;2023-12-20T10:29:01;7.70;99.90
17200;DHT22;8716;52.268;20.968;2023-12-20T10:31:32;7.60;99.90
17200;DHT22;8716;52.268;20.968;2023-12-20T10:34:02;7.70;99.90
17200;DHT22;8716;52.268;20.968;2023-12-20T10:36:32;7.70;99.90
17200;DHT22;8716;52.268;20.968;2023-12-20T10:39:02;7.70;99.90
17200;DHT22;8716;52.268;20.968;2023-12-20T10:41:32;7.70;99.90
17200;DHT22;8716;52.268;20.968;2023-12-20T10:44:03;7.70;99.90
17200;DHT22;8716;52.268;20.968;2023-12-20T10:46:33;7.60;99.90
17200;DHT22;8716;52.268;20.968;2023-12-20T10:49:05;7.60;99.90
17200;DHT22;8716;52.268;20.968;2023-12-20T10:51:34;7.70;99.90
17200;DHT22;8716;52.268;20.968;2023-12-20T10:54:04;7.70;99.90
17200;DHT22;8716;52.268;20.968;2023-12-20T10:56:34;7.70;99.90
17200;DHT22;8716;52.268;20.968;2023-12-20T10:59:04;7.80;99.90
17200;DHT22;8716;52.268;20.968;2023-12-20T11:01:33;7.80;99.90
17200;DHT22;8716;52.268;20.968;2023-12-20T11:04:06;7.70;99.90
17200;DHT22;8716;52.268;20.968;2023-12-20T11:06:43;7.70;99.90
17200;DHT22;8716;52.268;20.968;2023-12-20T11:09:25;7.80;99.90
17200;DHT22;8716;52.268;20.968;2023-12-20T11:12:03;7.70;99.90
17200;DHT22;8716;52.268;20.968;2023-12-20T11:14:39;7.70;99.90
17200;DHT22;8716;52.268;20.968;2023-12-20T11:17:10;7.80;99.90
17200;DHT22;8716;52.268;20.968;2023-12-20T11:20:04;7.70;99.90
17200;DHT22;8716;52.268;20.968;2023-12-20T11:22:34;7.70;99.90
17200;DHT22;8716;52.268;20.968;2023-12-20T11:25:10;7.70;99.90
17200;DHT22;8716;52.268;20.968;2023-12-20T11:27:41;7.80;99.90
17200;DHT22;8716;52.268;20.968;2023-12-20T11:30:14;7.80;99.90
17200;DHT22;8716;52.268;20.968;2023-12-20T11:32:46;7.80;99.90
17200;DHT22;8716;52.268;20.968;2023-12-20T11:35:19;7.80;99.90
17200;DHT22;8716;52.268;20.968;2023-12-20T11:37:48;7.70;99.90
17200;DHT22;8716;52.268;20.968;2023-12-20T11:40:18;7.80;99.90
17200;DHT22;8716;52.268;20.968;2023-12-20T11:42:51;7.80;99.90
17200;DHT22;8716;52.268;20.968;2023-12-20T11:45:21;7.90;99.90
17200;DHT22;8716;52.268;20.968;2023-12-20T11:47:51;7.90;99.90
17200;DHT22;8716;52.268;20.968;2023-12-20T11:50:22;7.90;99.90
17200;DHT22;8716;52.268;20.968;2023-12-20T11:52:52;7.90;99.90
17200;DHT22;8716;52.268;20.968;2023-12-20T11:55:24;7.80;99.90
17200;DHT22;8716;52.268;20.968;2023-12-20T11:57:52;7.80;99.90
17200;DHT22;8716;52.268;20.968;2023-12-20T12:00:21;7.80;99.90
17200;DHT22;8716;52.268;20.968;2023-12-20T12:02:59;7.80;99.90
17200;DHT22;8716;52.268;20.968;2023-12-20T12:05:31;7.70;99.90
17200;DHT22;8716;52.268;20.968;2023-12-20T12:08:00;7.70;99.90
17200;DHT22;8716;52.268;20.968;2023-12-20T12:10:30;7.70;99.90
17200;DHT22;8716;52.268;20.968;2023-12-20T12:12:59;7.80;99.90
17200;DHT22;8716;52.268;20.968;2023-12-20T12:15:28;7.80;99.90
17200;DHT22;8716;52.268;20.968;2023-12-20T12:17:57;7.70;99.90
17200;DHT22;8716;52.268;20.968;2023-12-20T12:20:26;7.70;99.90
17200;DHT22;8716;52.268;20.968;2023-12-20T12:22:58;7.80;99.90
17200;DHT22;8716;52.268;20.968;2023-12-20T12:25:31;7.80;99.90
17200;DHT22;8716;52.268;20.968;2023-12-20T12:28:01;7.80;99.90
17200;DHT22;8716;52.268;20.968;2023-12-20T12:30:30;7.80;99.90
17200;DHT22;8716;52.268;20.968;2023-12-20T12:33:05;7.80;99.90
17200;DHT22;8716;52.268;20.968;2023-12-20T12:35:35;7.80;99.90
17200;DHT22;8716;52.268;20.968;2023-12-20T12:38:06;7.80;99.90
17200;DHT22;8716;52.268;20.968;2023-12-20T12:40:37;7.80;99.90
17200;DHT22;8716;52.268;20.968;2023-12-20T12:43:05;7.80;99.90
17200;DHT22;8716;52.268;20.968;2023-12-20T12:45:34;7.70;99.90
17200;DHT22;8716;52.268;20.968;2023-12-20T12:48:04;7.80;99.90
17200;DHT22;8716;52.268;20.968;2023-12-20T12:50:34;7.80;99.90
17200;DHT22;8716;52.268;20.968;2023-12-20T12:53:03;7.80;99.90
17200;DHT22;8716;52.268;20.968;2023-12-20T12:55:36;7.80;99.90
17200;DHT22;8716;52.268;20.968;2023-12-20T12:58:05;7.70;99.90
17200;DHT22;8716;52.268;20.968;2023-12-20T13:00:34;7.70;99.90
17200;DHT22;8716;52.268;20.968;2023-12-20T13:03:03;7.70;99.90
17200;DHT22;8716;52.268;20.968;2023-12-20T13:05:31;7.70;99.90
17200;DHT22;8716;52.268;20.968;2023-12-20T13:08:06;7.70;99.90
17200;DHT22;8716;52.268;20.968;2023-12-20T13:10:38;7.60;99.90
17200;DHT22;8716;52.268;20.968;2023-12-20T13:13:06;7.60;99.90
17200;DHT22;8716;52.268;20.968;2023-12-20T13:15:38;7.70;99.90
17200;DHT22;8716;52.268;20.968;2023-12-20T13:18:13;7.70;99.90
17200;DHT22;8716;52.268;20.968;2023-12-20T13:20:42;7.70;99.90
17200;DHT22;8716;52.268;20.968;2023-12-20T13:23:11;7.60;99.90
17200;DHT22;8716;52.268;20.968;2023-12-20T13:25:41;7.60;99.90
17200;DHT22;8716;52.268;20.968;2023-12-20T13:28:13;7.60;99.90
17200;DHT22;8716;52.268;20.968;2023-12-20T13:30:46;7.60;99.90
17200;DHT22;8716;52.268;20.968;2023-12-20T13:33:15;7.70;99.90
17200;DHT22;8716;52.268;20.968;2023-12-20T13:35:43;7.70;99.90
17200;DHT22;8716;52.268;20.968;2023-12-20T13:38:13;7.60;99.90
17200;DHT22;8716;52.268;20.968;2023-12-20T13:40:43;7.70;99.90
17200;DHT22;8716;52.268;20.968;2023-12-20T13:43:13;7.70;99.90
17200;DHT22;8716;52.268;20.968;2023-12-20T13:45:43;7.70;99.90
17200;DHT22;8716;52.268;20.968;2023-12-20T13:48:12;7.70;99.90
17200;DHT22;8716;52.268;20.968;2023-12-20T13:50:41;7.70;99.90
17200;DHT22;8716;52.268;20.968;2023-12-20T13:53:09;7.70;99.90
17200;DHT22;8716;52.268;20.968;2023-12-20T13:55:41;7.70;99.90
17200;DHT22;8716;52.268;20.968;2023-12-20T13:58:14;7.60;99.90
17200;DHT22;8716;52.268;20.968;2023-12-20T14:00:43;7.60;99.90
17200;DHT22;8716;52.268;20.968;2023-12-20T14:03:15;7.60;99.90
17200;DHT22;8716;52.268;20.968;2023-12-20T14:05:44;7.60;99.90
17200;DHT22;8716;52.268;20.968;2023-12-20T14:08:13;7.50;99.90
17200;DHT22;8716;52.268;20.968;2023-12-20T14:10:41;7.40;99.90
17200;DHT22;8716;52.268;20.968;2023-12-20T14:13:10;7.40;99.90
17200;DHT22;8716;52.268;20.968;2023-12-20T14:15:40;7.40;99.90
17200;DHT22;8716;52.268;20.968;2023-12-20T14:18:09;7.30;99.90
17200;DHT22;8716;52.268;20.968;2023-12-20T14:20:39;7.40;99.90
17200;DHT22;8716;52.268;20.968;2023-12-20T14:23:09;7.30;99.90
17200;DHT22;8716;52.268;20.968;2023-12-20T14:25:38;7.30;99.90
17200;DHT22;8716;52.268;20.968;2023-12-20T14:28:18;7.20;99.90
17200;DHT22;8716;52.268;20.968;2023-12-20T14:30:48;7.30;99.90
17200;DHT22;8716;52.268;20.968;2023-12-20T14:33:17;7.40;99.90
17200;DHT22;8716;52.268;20.968;2023-12-20T14:35:48;7.30;99.90
17200;DHT22;8716;52.268;20.968;2023-12-20T14:38:16;7.40;99.90
17200;DHT22;8716;52.268;20.968;2023-12-20T14:40:44;7.40;99.90
17200;DHT22;8716;52.268;20.968;2023-12-20T14:43:13;7.30;99.90
17200;DHT22;8716;52.268;20.968;2023-12-20T14:45:41;7.10;99.90
17200;DHT22;8716;52.268;20.968;2023-12-20T14:48:11;7.10;99.90
17200;DHT22;8716;52.268;20.968;2023-12-20T14:50:39;7.20;99.90
17200;DHT22;8716;52.268;20.968;2023-12-20T14:53:09;7.20;99.90
17200;DHT22;8716;52.268;20.968;2023-12-20T14:55:39;7.20;99.90
17200;DHT22;8716;52.268;20.968;2023-12-20T14:58:08;7.10;99.90
17200;DHT22;8716;52.268;20.968;2023-12-20T15:00:37;7.10;99.90
17200;DHT22;8716;52.268;20.968;2023-12-20T15:03:05;7.10;99.90
17200;DHT22;8716;52.268;20.968;2023-12-20T15:05:35;7.00;99.90
17200;DHT22;8716;52.268;20.968;2023-12-20T15:08:07;7.00;99.90
17200;DHT22;8716;52.268;20.968;2023-12-20T15:10:37;7.00;99.90
17200;DHT22;8716;52.268;20.968;2023-12-20T15:13:07;6.90;99.90
17200;DHT22;8716;52.268;20.968;2023-12-20T15:15:36;6.90;99.90
17200;DHT22;8716;52.268;20.968;2023-12-20T15:18:07;7.00;99.90
17200;DHT22;8716;52.268;20.968;2023-12-20T15:20:37;7.00;99.90
17200;DHT22;8716;52.268;20.968;2023-12-20T15:23:09;6.90;99.90
17200;DHT22;8716;52.268;20.968;2023-12-20T15:25:38;6.90;99.90
17200;DHT22;8716;52.268;20.968;2023-12-20T15:28:06;6.90;99.90
17200;DHT22;8716;52.268;20.968;2023-12-20T15:30:37;6.90;99.90
17200;DHT22;8716;52.268;20.968;2023-12-20T15:33:23;6.90;99.90
17200;DHT22;8716;52.268;20.968;2023-12-20T15:35:52;6.90;99.90
17200;DHT22;8716;52.268;20.968;2023-12-20T15:38:21;6.90;99.90
17200;DHT22;8716;52.268;20.968;2023-12-20T15:40:49;6.90;99.90
17200;DHT22;8716;52.268;20.968;2023-12-20T15:43:18;6.90;99.90
17200;DHT22;8716;52.268;20.968;2023-12-20T15:45:46;6.90;99.90
17200;DHT22;8716;52.268;20.968;2023-12-20T15:48:14;6.80;99.90
17200;DHT22;8716;52.268;20.968;2023-12-20T15:50:45;6.80;99.90
17200;DHT22;8716;52.268;20.968;2023-12-20T15:53:15;6.90;99.90
17200;DHT22;8716;52.268;20.968;2023-12-20T15:55:44;6.80;99.90
17200;DHT22;8716;52.268;20.968;2023-12-20T15:58:12;6.70;99.90
17200;DHT22;8716;52.268;20.968;2023-12-20T16:00:40;6.70;99.90
17200;DHT22;8716;52.268;20.968;2023-12-20T16:03:09;6.70;99.90